sensor_id;sensor_type;location;lat;lon;timestamp;pressure;altitude;pressure_sealevel;temperature;humidity
61805;BME280;47725;47.912;7.356;2023-05-08T00:00:00;99537.86;;;18.16;67.29
61805;BME280;47725;47.912;7.356;2023-05-08T00:04:00;99537.23;;;18.14;67.38
61805;BME280;47725;47.912;7.356;2023-05-08T00:08:00;99535.79;;;18.10;67.75
61805;BME280;47725;47.912;7.356;2023-05-08T00:12:00;99534.96;;;18.09;67.64
61805;BME280;47725;47.912;7.356;2023-05-08T00:16:00;99533.50;;;18.09;67.54
61805;BME280;47725;47.912;7.356;2023-05-08T00:20:00;99531.76;;;18.10;67.50
61805;BME280;47725;47.912;7.356;2023-05-08T00:24:00;99530.78;;;18.11;67.48
61805;BME280;47725;47.912;7.356;2023-05-08T00:28:00;99530.30;;;18.11;67.76
61805;BME280;47725;47.912;7.356;2023-05-08T00:32:00;99530.41;;;18.11;67.83
61805;BME280;47725;47.912;7.356;2023-05-08T00:36:03;99530.22;;;18.10;67.89
61805;BME280;47725;47.912;7.356;2023-05-08T00:40:00;99531.06;;;18.11;67.72
61805;BME280;47725;47.912;7.356;2023-05-08T00:44:00;99532.43;;;18.11;67.59
61805;BME280;47725;47.912;7.356;2023-05-08T00:48:00;99533.53;;;18.11;67.73
61805;BME280;47725;47.912;7.356;2023-05-08T00:52:00;99536.44;;;18.09;68.08
61805;BME280;47725;47.912;7.356;2023-05-08T00:56:00;99538.42;;;18.07;68.03
61805;BME280;47725;47.912;7.356;2023-05-08T01:00:00;99540.86;;;18.05;68.04
61805;BME280;47725;47.912;7.356;2023-05-08T01:04:00;99542.81;;;18.03;68.11
61805;BME280;47725;47.912;7.356;2023-05-08T01:08:00;99545.84;;;18.03;68.04
61805;BME280;47725;47.912;7.356;2023-05-08T01:16:04;99552.84;;;18.02;68.05
61805;BME280;47725;47.912;7.356;2023-05-08T01:20:21;99554.86;;;18.01;68.20
61805;BME280;47725;47.912;7.356;2023-05-08T01:24:15;99557.11;;;18.00;68.21
61805;BME280;47725;47.912;7.356;2023-05-08T01:32:18;99559.12;;;17.98;68.42
61805;BME280;47725;47.912;7.356;2023-05-08T01:40:16;99559.78;;;17.98;68.40
61805;BME280;47725;47.912;7.356;2023-05-08T01:44:05;99560.93;;;17.98;68.38
61805;BME280;47725;47.912;7.356;2023-05-08T01:48:03;99562.45;;;17.96;68.61
61805;BME280;47725;47.912;7.356;2023-05-08T01:52:08;99562.72;;;17.96;68.66
61805;BME280;47725;47.912;7.356;2023-05-08T01:56:02;99562.38;;;17.95;68.66
61805;BME280;47725;47.912;7.356;2023-05-08T02:00:00;99562.63;;;17.95;68.59
61805;BME280;47725;47.912;7.356;2023-05-08T02:04:00;99562.69;;;17.96;68.42
61805;BME280;47725;47.912;7.356;2023-05-08T02:08:00;99562.78;;;17.96;68.56
61805;BME280;47725;47.912;7.356;2023-05-08T02:12:00;99561.22;;;17.96;68.41
61805;BME280;47725;47.912;7.356;2023-05-08T02:16:00;99560.17;;;17.97;68.48
61805;BME280;47725;47.912;7.356;2023-05-08T02:20:00;99560.10;;;17.96;68.61
61805;BME280;47725;47.912;7.356;2023-05-08T02:24:00;99562.02;;;17.95;68.60
61805;BME280;47725;47.912;7.356;2023-05-08T02:28:00;99563.64;;;17.93;68.88
61805;BME280;47725;47.912;7.356;2023-05-08T02:32:00;99564.59;;;17.90;69.04
61805;BME280;47725;47.912;7.356;2023-05-08T02:36:00;99565.94;;;17.88;69.03
61805;BME280;47725;47.912;7.356;2023-05-08T02:40:00;99567.35;;;17.86;69.16
61805;BME280;47725;47.912;7.356;2023-05-08T02:44:00;99567.81;;;17.85;69.10
61805;BME280;47725;47.912;7.356;2023-05-08T02:48:11;99568.85;;;17.84;69.04
61805;BME280;47725;47.912;7.356;2023-05-08T02:56:09;99569.58;;;17.82;68.99
61805;BME280;47725;47.912;7.356;2023-05-08T03:00:04;99570.31;;;17.80;69.25
61805;BME280;47725;47.912;7.356;2023-05-08T03:04:09;99570.00;;;17.77;69.25
61805;BME280;47725;47.912;7.356;2023-05-08T03:08:03;99569.45;;;17.76;69.19
61805;BME280;47725;47.912;7.356;2023-05-08T03:12:00;99569.16;;;17.74;69.21
61805;BME280;47725;47.912;7.356;2023-05-08T03:16:00;99568.43;;;17.69;69.34
61805;BME280;47725;47.912;7.356;2023-05-08T03:20:02;99568.16;;;17.67;69.34
61805;BME280;47725;47.912;7.356;2023-05-08T03:24:01;99568.58;;;17.66;69.27
61805;BME280;47725;47.912;7.356;2023-05-08T03:28:00;99568.70;;;17.65;69.35
61805;BME280;47725;47.912;7.356;2023-05-08T03:32:00;99568.70;;;17.65;69.26
61805;BME280;47725;47.912;7.356;2023-05-08T03:36:00;99568.48;;;17.66;69.17
61805;BME280;47725;47.912;7.356;2023-05-08T03:40:00;99567.27;;;17.66;69.20
61805;BME280;47725;47.912;7.356;2023-05-08T03:44:00;99568.08;;;17.66;69.27
61805;BME280;47725;47.912;7.356;2023-05-08T03:48:00;99568.88;;;17.66;69.36
61805;BME280;47725;47.912;7.356;2023-05-08T03:52:00;99571.28;;;17.66;69.35
61805;BME280;47725;47.912;7.356;2023-05-08T03:56:00;99573.49;;;17.67;69.39
61805;BME280;47725;47.912;7.356;2023-05-08T04:00:02;99575.14;;;17.68;69.32
61805;BME280;47725;47.912;7.356;2023-05-08T04:04:02;99576.50;;;17.69;69.34
61805;BME280;47725;47.912;7.356;2023-05-08T04:08:02;99578.13;;;17.70;69.42
61805;BME280;47725;47.912;7.356;2023-05-08T04:12:04;99578.99;;;17.70;69.42
61805;BME280;47725;47.912;7.356;2023-05-08T04:16:04;99579.97;;;17.72;69.27
61805;BME280;47725;47.912;7.356;2023-05-08T04:20:02;99581.56;;;17.73;69.31
61805;BME280;47725;47.912;7.356;2023-05-08T04:24:00;99582.37;;;17.73;69.17
61805;BME280;47725;47.912;7.356;2023-05-08T04:28:00;99585.19;;;17.74;69.28
61805;BME280;47725;47.912;7.356;2023-05-08T04:32:00;99588.53;;;17.74;69.33
61805;BME280;47725;47.912;7.356;2023-05-08T04:36:00;99590.95;;;17.75;69.24
61805;BME280;47725;47.912;7.356;2023-05-08T04:40:00;99593.58;;;17.75;69.42
61805;BME280;47725;47.912;7.356;2023-05-08T04:44:00;99596.07;;;17.76;69.33
61805;BME280;47725;47.912;7.356;2023-05-08T04:48:00;99598.03;;;17.76;69.25
61805;BME280;47725;47.912;7.356;2023-05-08T04:52:00;99599.60;;;17.77;69.40
61805;BME280;47725;47.912;7.356;2023-05-08T04:56:00;99600.83;;;17.76;69.45
61805;BME280;47725;47.912;7.356;2023-05-08T05:00:00;99602.47;;;17.76;69.43
61805;BME280;47725;47.912;7.356;2023-05-08T05:04:00;99604.53;;;17.77;69.46
61805;BME280;47725;47.912;7.356;2023-05-08T05:08:00;99606.27;;;17.77;69.45
61805;BME280;47725;47.912;7.356;2023-05-08T05:12:00;99605.77;;;17.78;69.31
61805;BME280;47725;47.912;7.356;2023-05-08T05:16:00;99605.47;;;17.79;69.34
61805;BME280;47725;47.912;7.356;2023-05-08T05:20:00;99605.47;;;17.79;69.61
61805;BME280;47725;47.912;7.356;2023-05-08T05:24:00;99606.03;;;17.79;69.60
61805;BME280;47725;47.912;7.356;2023-05-08T05:28:00;99606.03;;;17.81;69.66
61805;BME280;47725;47.912;7.356;2023-05-08T05:32:00;99605.19;;;17.82;69.65
61805;BME280;47725;47.912;7.356;2023-05-08T05:36:00;99606.52;;;17.84;69.54
61805;BME280;47725;47.912;7.356;2023-05-08T05:40:00;99607.70;;;17.87;69.51
61805;BME280;47725;47.912;7.356;2023-05-08T05:44:00;99609.58;;;17.91;69.41
61805;BME280;47725;47.912;7.356;2023-05-08T05:48:00;99613.50;;;17.94;69.53
61805;BME280;47725;47.912;7.356;2023-05-08T05:52:00;99617.74;;;17.97;69.55
61805;BME280;47725;47.912;7.356;2023-05-08T05:56:00;99621.37;;;18.01;69.40
61805;BME280;47725;47.912;7.356;2023-05-08T06:00:00;99622.85;;;18.05;69.42
61805;BME280;47725;47.912;7.356;2023-05-08T06:04:00;99625.41;;;18.09;69.42
61805;BME280;47725;47.912;7.356;2023-05-08T06:08:00;99626.99;;;18.11;69.59
61805;BME280;47725;47.912;7.356;2023-05-08T06:12:00;99629.10;;;18.15;69.47
61805;BME280;47725;47.912;7.356;2023-05-08T06:16:00;99632.30;;;18.19;69.39
61805;BME280;47725;47.912;7.356;2023-05-08T06:20:00;99634.69;;;18.22;69.37
61805;BME280;47725;47.912;7.356;2023-05-08T06:24:00;99637.22;;;18.26;69.34
61805;BME280;47725;47.912;7.356;2023-05-08T06:28:00;99639.53;;;18.29;69.44
61805;BME280;47725;47.912;7.356;2023-05-08T06:32:00;99642.27;;;18.31;69.50
61805;BME280;47725;47.912;7.356;2023-05-08T06:36:00;99645.92;;;18.35;69.43
61805;BME280;47725;47.912;7.356;2023-05-08T06:40:00;99649.50;;;18.38;69.46
61805;BME280;47725;47.912;7.356;2023-05-08T06:44:00;99651.37;;;18.41;69.32
61805;BME280;47725;47.912;7.356;2023-05-08T06:48:00;99653.47;;;18.45;69.30
61805;BME280;47725;47.912;7.356;2023-05-08T06:52:00;99655.53;;;18.48;69.31
61805;BME280;47725;47.912;7.356;2023-05-08T06:55:59;99658.14;;;18.52;69.12
61805;BME280;47725;47.912;7.356;2023-05-08T06:59:59;99660.16;;;18.55;69.11
61805;BME280;47725;47.912;7.356;2023-05-08T07:03:59;99661.41;;;18.58;69.07
61805;BME280;47725;47.912;7.356;2023-05-08T07:07:59;99661.94;;;18.61;69.03
61805;BME280;47725;47.912;7.356;2023-05-08T07:11:59;99662.22;;;18.65;68.96
61805;BME280;47725;47.912;7.356;2023-05-08T07:15:59;99661.08;;;18.67;68.95
61805;BME280;47725;47.912;7.356;2023-05-08T07:19:59;99660.30;;;18.70;69.02
61805;BME280;47725;47.912;7.356;2023-05-08T07:23:59;99661.77;;;18.72;68.86
61805;BME280;47725;47.912;7.356;2023-05-08T07:27:59;99664.50;;;18.72;69.08
61805;BME280;47725;47.912;7.356;2023-05-08T07:31:59;99665.65;;;18.72;69.07
61805;BME280;47725;47.912;7.356;2023-05-08T07:36:00;99665.19;;;18.74;68.42
61805;BME280;47725;47.912;7.356;2023-05-08T07:39:59;99664.14;;;18.70;69.26
61805;BME280;47725;47.912;7.356;2023-05-08T07:43:59;99664.81;;;18.76;68.35
61805;BME280;47725;47.912;7.356;2023-05-08T07:47:59;99665.74;;;18.82;68.26
61805;BME280;47725;47.912;7.356;2023-05-08T07:51:59;99663.83;;;18.91;67.91
61805;BME280;47725;47.912;7.356;2023-05-08T07:55:59;99662.67;;;19.01;67.60
61805;BME280;47725;47.912;7.356;2023-05-08T08:00:00;99663.09;;;19.14;67.12
61805;BME280;47725;47.912;7.356;2023-05-08T08:03:59;99663.39;;;19.28;66.73
61805;BME280;47725;47.912;7.356;2023-05-08T08:07:59;99664.06;;;19.46;66.35
61805;BME280;47725;47.912;7.356;2023-05-08T08:12:03;99664.62;;;19.65;65.43
61805;BME280;47725;47.912;7.356;2023-05-08T08:16:00;99666.16;;;19.85;64.80
61805;BME280;47725;47.912;7.356;2023-05-08T08:19:59;99667.14;;;20.06;63.95
61805;BME280;47725;47.912;7.356;2023-05-08T08:23:59;99667.54;;;20.27;63.68
61805;BME280;47725;47.912;7.356;2023-05-08T08:27:59;99669.17;;;20.46;63.55
61805;BME280;47725;47.912;7.356;2023-05-08T08:31:59;99669.87;;;20.60;63.11
61805;BME280;47725;47.912;7.356;2023-05-08T08:35:59;99670.34;;;20.72;63.29
61805;BME280;47725;47.912;7.356;2023-05-08T08:39:59;99670.45;;;20.83;63.10
61805;BME280;47725;47.912;7.356;2023-05-08T08:43:59;99669.45;;;20.93;63.11
61805;BME280;47725;47.912;7.356;2023-05-08T08:48:00;99668.55;;;21.03;62.59
61805;BME280;47725;47.912;7.356;2023-05-08T08:52:01;99667.16;;;21.11;61.43
61805;BME280;47725;47.912;7.356;2023-05-08T08:55:59;99666.56;;;21.16;62.18
61805;BME280;47725;47.912;7.356;2023-05-08T09:00:00;99665.92;;;21.19;62.30
61805;BME280;47725;47.912;7.356;2023-05-08T09:03:59;99666.72;;;21.23;62.62
61805;BME280;47725;47.912;7.356;2023-05-08T09:07:59;99666.39;;;21.29;61.84
61805;BME280;47725;47.912;7.356;2023-05-08T09:11:59;99666.15;;;21.32;61.21
61805;BME280;47725;47.912;7.356;2023-05-08T09:15:59;99667.04;;;21.33;61.75
61805;BME280;47725;47.912;7.356;2023-05-08T09:20:00;99668.20;;;21.35;61.69
61805;BME280;47725;47.912;7.356;2023-05-08T09:24:00;99668.37;;;21.38;61.68
61805;BME280;47725;47.912;7.356;2023-05-08T09:28:13;99669.26;;;21.44;61.18
61805;BME280;47725;47.912;7.356;2023-05-08T09:31:59;99670.03;;;21.50;60.27
61805;BME280;47725;47.912;7.356;2023-05-08T09:35:59;99670.62;;;21.56;59.69
61805;BME280;47725;47.912;7.356;2023-05-08T09:40:12;99672.50;;;21.61;60.12
61805;BME280;47725;47.912;7.356;2023-05-08T09:44:03;99673.60;;;21.68;59.96
61805;BME280;47725;47.912;7.356;2023-05-08T09:47:59;99674.56;;;21.75;59.61
61805;BME280;47725;47.912;7.356;2023-05-08T09:51:59;99675.20;;;21.80;59.32
61805;BME280;47725;47.912;7.356;2023-05-08T09:55:59;99675.34;;;21.85;59.45
61805;BME280;47725;47.912;7.356;2023-05-08T10:00:00;99675.97;;;21.90;59.31
61805;BME280;47725;47.912;7.356;2023-05-08T10:04:00;99676.64;;;21.99;59.06
61805;BME280;47725;47.912;7.356;2023-05-08T10:11:59;99678.17;;;22.31;57.53
61805;BME280;47725;47.912;7.356;2023-05-08T10:15:59;99677.92;;;22.49;57.23
61805;BME280;47725;47.912;7.356;2023-05-08T10:19:59;99677.06;;;22.70;56.60
61805;BME280;47725;47.912;7.356;2023-05-08T10:23:59;99676.17;;;22.88;56.06
61805;BME280;47725;47.912;7.356;2023-05-08T10:28:06;99674.81;;;23.01;56.44
61805;BME280;47725;47.912;7.356;2023-05-08T10:31:59;99673.46;;;23.10;56.17
61805;BME280;47725;47.912;7.356;2023-05-08T10:35:59;99672.00;;;23.15;56.09
61805;BME280;47725;47.912;7.356;2023-05-08T10:39:59;99670.35;;;23.17;56.62
61805;BME280;47725;47.912;7.356;2023-05-08T10:43:59;99669.26;;;23.19;56.41
61805;BME280;47725;47.912;7.356;2023-05-08T10:52:11;99667.27;;;23.17;56.55
61805;BME280;47725;47.912;7.356;2023-05-08T10:55:59;99665.00;;;23.13;56.93
61805;BME280;47725;47.912;7.356;2023-05-08T10:59:59;99662.81;;;23.09;56.95
61805;BME280;47725;47.912;7.356;2023-05-08T11:03:59;99660.30;;;23.03;56.71
61805;BME280;47725;47.912;7.356;2023-05-08T11:07:59;99658.23;;;22.96;57.07
61805;BME280;47725;47.912;7.356;2023-05-08T11:15:59;99652.29;;;22.81;57.50
61805;BME280;47725;47.912;7.356;2023-05-08T11:20:03;99649.43;;;22.72;58.17
61805;BME280;47725;47.912;7.356;2023-05-08T11:23:59;99647.17;;;22.64;58.06
61805;BME280;47725;47.912;7.356;2023-05-08T11:28:08;99643.56;;;22.58;58.17
61805;BME280;47725;47.912;7.356;2023-05-08T11:31:59;99640.11;;;22.53;58.11
61805;BME280;47725;47.912;7.356;2023-05-08T11:36:00;99637.11;;;22.48;57.81
61805;BME280;47725;47.912;7.356;2023-05-08T11:40:18;99636.24;;;22.40;57.78
61805;BME280;47725;47.912;7.356;2023-05-08T11:44:08;99634.61;;;22.29;57.80
61805;BME280;47725;47.912;7.356;2023-05-08T11:47:59;99633.75;;;22.18;57.89
61805;BME280;47725;47.912;7.356;2023-05-08T11:51:59;99631.69;;;22.07;58.45
61805;BME280;47725;47.912;7.356;2023-05-08T11:55:59;99631.55;;;22.01;58.63
61805;BME280;47725;47.912;7.356;2023-05-08T12:00:03;99630.81;;;21.96;58.35
61805;BME280;47725;47.912;7.356;2023-05-08T12:04:00;99629.18;;;21.93;58.32
61805;BME280;47725;47.912;7.356;2023-05-08T12:07:59;99629.17;;;21.94;58.20
61805;BME280;47725;47.912;7.356;2023-05-08T12:11:59;99628.96;;;21.96;57.93
61805;BME280;47725;47.912;7.356;2023-05-08T12:15:59;99628.66;;;21.99;57.95
61805;BME280;47725;47.912;7.356;2023-05-08T12:20:15;99628.80;;;22.04;57.84
61805;BME280;47725;47.912;7.356;2023-05-08T12:23:59;99627.62;;;22.07;57.40
61805;BME280;47725;47.912;7.356;2023-05-08T12:27:59;99627.17;;;22.09;57.34
61805;BME280;47725;47.912;7.356;2023-05-08T12:31:59;99626.76;;;22.11;57.59
61805;BME280;47725;47.912;7.356;2023-05-08T12:35:59;99625.92;;;22.11;57.91
61805;BME280;47725;47.912;7.356;2023-05-08T12:39:59;99624.68;;;22.10;57.48
61805;BME280;47725;47.912;7.356;2023-05-08T12:43:59;99624.80;;;22.10;57.42
61805;BME280;47725;47.912;7.356;2023-05-08T12:48:00;99625.86;;;22.09;57.62
61805;BME280;47725;47.912;7.356;2023-05-08T12:52:10;99626.37;;;22.08;57.41
61805;BME280;47725;47.912;7.356;2023-05-08T12:56:00;99625.55;;;22.06;57.54
61805;BME280;47725;47.912;7.356;2023-05-08T13:00:03;99624.53;;;22.07;57.81
61805;BME280;47725;47.912;7.356;2023-05-08T13:03:59;99624.52;;;22.10;56.73
61805;BME280;47725;47.912;7.356;2023-05-08T13:08:00;99625.43;;;22.11;56.91
61805;BME280;47725;47.912;7.356;2023-05-08T13:11:59;99624.69;;;22.11;57.50
61805;BME280;47725;47.912;7.356;2023-05-08T13:16:03;99624.18;;;22.14;56.88
61805;BME280;47725;47.912;7.356;2023-05-08T13:19:59;99624.31;;;22.17;56.48
61805;BME280;47725;47.912;7.356;2023-05-08T13:23:59;99624.42;;;22.21;56.82
61805;BME280;47725;47.912;7.356;2023-05-08T13:27:59;99624.30;;;22.29;56.08
61805;BME280;47725;47.912;7.356;2023-05-08T13:31:59;99623.00;;;22.38;55.61
61805;BME280;47725;47.912;7.356;2023-05-08T13:35:59;99620.19;;;22.50;55.46
61805;BME280;47725;47.912;7.356;2023-05-08T13:39:59;99614.64;;;22.65;55.07
61805;BME280;47725;47.912;7.356;2023-05-08T13:43:59;99611.27;;;22.81;54.94
61805;BME280;47725;47.912;7.356;2023-05-08T13:47:59;99609.00;;;22.99;54.28
61805;BME280;47725;47.912;7.356;2023-05-08T13:51:59;99606.15;;;23.15;53.55
61805;BME280;47725;47.912;7.356;2023-05-08T13:55:59;99602.80;;;23.25;53.24
61805;BME280;47725;47.912;7.356;2023-05-08T13:59:59;99599.24;;;23.32;52.65
61805;BME280;47725;47.912;7.356;2023-05-08T14:03:59;99596.89;;;23.36;52.41
61805;BME280;47725;47.912;7.356;2023-05-08T14:07:59;99594.98;;;23.38;52.29
61805;BME280;47725;47.912;7.356;2023-05-08T14:11:59;99594.56;;;23.39;52.01
61805;BME280;47725;47.912;7.356;2023-05-08T14:15:59;99594.19;;;23.40;51.90
61805;BME280;47725;47.912;7.356;2023-05-08T14:19:59;99594.22;;;23.39;52.40
61805;BME280;47725;47.912;7.356;2023-05-08T14:23:59;99593.66;;;23.38;52.52
61805;BME280;47725;47.912;7.356;2023-05-08T14:27:59;99593.05;;;23.37;52.23
61805;BME280;47725;47.912;7.356;2023-05-08T14:31:59;99592.31;;;23.35;51.98
61805;BME280;47725;47.912;7.356;2023-05-08T14:35:59;99591.58;;;23.35;51.78
61805;BME280;47725;47.912;7.356;2023-05-08T14:39:59;99590.26;;;23.34;52.00
61805;BME280;47725;47.912;7.356;2023-05-08T14:43:59;99588.51;;;23.30;52.17
61805;BME280;47725;47.912;7.356;2023-05-08T14:47:59;99586.36;;;23.26;52.61
61805;BME280;47725;47.912;7.356;2023-05-08T14:51:59;99584.75;;;23.24;52.81
61805;BME280;47725;47.912;7.356;2023-05-08T14:55:59;99583.40;;;23.25;52.83
61805;BME280;47725;47.912;7.356;2023-05-08T14:59:59;99581.23;;;23.27;52.81
61805;BME280;47725;47.912;7.356;2023-05-08T15:03:59;99579.50;;;23.27;53.01
61805;BME280;47725;47.912;7.356;2023-05-08T15:07:59;99579.30;;;23.28;52.92
61805;BME280;47725;47.912;7.356;2023-05-08T15:11:59;99579.47;;;23.28;53.08
61805;BME280;47725;47.912;7.356;2023-05-08T15:15:59;99580.47;;;23.28;53.29
61805;BME280;47725;47.912;7.356;2023-05-08T15:19:59;99580.96;;;23.28;53.21
61805;BME280;47725;47.912;7.356;2023-05-08T15:23:59;99581.80;;;23.26;53.35
61805;BME280;47725;47.912;7.356;2023-05-08T15:27:59;99582.48;;;23.25;53.24
61805;BME280;47725;47.912;7.356;2023-05-08T15:31:59;99583.09;;;23.24;53.23
61805;BME280;47725;47.912;7.356;2023-05-08T15:35:59;99585.27;;;23.24;53.24
61805;BME280;47725;47.912;7.356;2023-05-08T15:39:59;99587.06;;;23.23;52.89
61805;BME280;47725;47.912;7.356;2023-05-08T15:43:59;99587.71;;;23.19;53.04
61805;BME280;47725;47.912;7.356;2023-05-08T15:47:59;99588.14;;;23.16;52.96
61805;BME280;47725;47.912;7.356;2023-05-08T15:51:59;99588.09;;;23.10;53.44
61805;BME280;47725;47.912;7.356;2023-05-08T15:55:59;99589.83;;;23.08;53.71
61805;BME280;47725;47.912;7.356;2023-05-08T15:59:59;99592.75;;;23.07;53.55
61805;BME280;47725;47.912;7.356;2023-05-08T16:03:59;99596.40;;;23.04;53.64
61805;BME280;47725;47.912;7.356;2023-05-08T16:07:59;99599.03;;;23.01;53.85
61805;BME280;47725;47.912;7.356;2023-05-08T16:11:59;99600.98;;;22.96;54.05
61805;BME280;47725;47.912;7.356;2023-05-08T16:16:02;99602.91;;;22.93;54.19
61805;BME280;47725;47.912;7.356;2023-05-08T16:19:59;99603.34;;;22.89;54.24
61805;BME280;47725;47.912;7.356;2023-05-08T16:23:59;99603.13;;;22.86;54.34
61805;BME280;47725;47.912;7.356;2023-05-08T16:27:59;99603.23;;;22.83;54.49
61805;BME280;47725;47.912;7.356;2023-05-08T16:31:59;99605.06;;;22.80;54.64
61805;BME280;47725;47.912;7.356;2023-05-08T16:35:59;99605.78;;;22.76;54.62
61805;BME280;47725;47.912;7.356;2023-05-08T16:39:59;99606.81;;;22.71;54.80
61805;BME280;47725;47.912;7.356;2023-05-08T16:43:59;99608.42;;;22.68;54.80
61805;BME280;47725;47.912;7.356;2023-05-08T16:47:59;99609.09;;;22.65;54.69
61805;BME280;47725;47.912;7.356;2023-05-08T16:51:59;99610.75;;;22.61;54.63
61805;BME280;47725;47.912;7.356;2023-05-08T16:55:59;99610.89;;;22.58;54.51
61805;BME280;47725;47.912;7.356;2023-05-08T16:59:59;99611.47;;;22.54;54.37
61805;BME280;47725;47.912;7.356;2023-05-08T17:03:59;99611.68;;;22.49;54.46
61805;BME280;47725;47.912;7.356;2023-05-08T17:07:59;99610.96;;;22.45;54.63
61805;BME280;47725;47.912;7.356;2023-05-08T17:11:59;99612.23;;;22.40;54.69
61805;BME280;47725;47.912;7.356;2023-05-08T17:15:59;99613.70;;;22.35;55.16
61805;BME280;47725;47.912;7.356;2023-05-08T17:19:59;99615.31;;;22.29;55.46
61805;BME280;47725;47.912;7.356;2023-05-08T17:23:59;99616.10;;;22.23;55.61
61805;BME280;47725;47.912;7.356;2023-05-08T17:27:59;99616.78;;;22.18;55.66
61805;BME280;47725;47.912;7.356;2023-05-08T17:31:59;99617.25;;;22.13;55.71
61805;BME280;47725;47.912;7.356;2023-05-08T17:35:59;99618.57;;;22.07;55.72
61805;BME280;47725;47.912;7.356;2023-05-08T17:39:59;99620.68;;;22.02;55.68
61805;BME280;47725;47.912;7.356;2023-05-08T17:43:59;99622.34;;;21.96;55.61
61805;BME280;47725;47.912;7.356;2023-05-08T17:47:59;99623.77;;;21.92;55.46
61805;BME280;47725;47.912;7.356;2023-05-08T17:51:59;99625.31;;;21.87;55.61
61805;BME280;47725;47.912;7.356;2023-05-08T17:55:59;99629.03;;;21.82;55.73
61805;BME280;47725;47.912;7.356;2023-05-08T17:59:59;99633.94;;;21.76;55.85
61805;BME280;47725;47.912;7.356;2023-05-08T18:03:59;99637.69;;;21.70;55.92
61805;BME280;47725;47.912;7.356;2023-05-08T18:07:59;99641.16;;;21.64;56.07
61805;BME280;47725;47.912;7.356;2023-05-08T18:11:59;99643.84;;;21.59;56.32
61805;BME280;47725;47.912;7.356;2023-05-08T18:15:59;99646.04;;;21.55;56.53
61805;BME280;47725;47.912;7.356;2023-05-08T18:19:59;99648.13;;;21.50;56.55
61805;BME280;47725;47.912;7.356;2023-05-08T18:23:59;99649.67;;;21.46;56.76
61805;BME280;47725;47.912;7.356;2023-05-08T18:27:59;99649.80;;;21.41;56.86
61805;BME280;47725;47.912;7.356;2023-05-08T18:31:59;99651.78;;;21.36;56.92
61805;BME280;47725;47.912;7.356;2023-05-08T18:35:59;99653.28;;;21.31;56.93
61805;BME280;47725;47.912;7.356;2023-05-08T18:39:59;99652.34;;;21.27;56.99
61805;BME280;47725;47.912;7.356;2023-05-08T18:43:59;99652.34;;;21.23;57.18
61805;BME280;47725;47.912;7.356;2023-05-08T18:47:59;99652.69;;;21.18;57.43
61805;BME280;47725;47.912;7.356;2023-05-08T18:51:59;99652.11;;;21.14;57.59
61805;BME280;47725;47.912;7.356;2023-05-08T18:56:00;99652.21;;;21.10;57.82
61805;BME280;47725;47.912;7.356;2023-05-08T18:59:59;99652.70;;;21.05;58.01
61805;BME280;47725;47.912;7.356;2023-05-08T19:03:59;99653.96;;;20.99;58.26
61805;BME280;47725;47.912;7.356;2023-05-08T19:07:59;99654.46;;;20.93;58.55
61805;BME280;47725;47.912;7.356;2023-05-08T19:11:59;99654.08;;;20.86;58.82
61805;BME280;47725;47.912;7.356;2023-05-08T19:15:59;99654.16;;;20.79;58.93
61805;BME280;47725;47.912;7.356;2023-05-08T19:19:59;99654.75;;;20.74;58.96
61805;BME280;47725;47.912;7.356;2023-05-08T19:23:59;99653.99;;;20.69;58.96
61805;BME280;47725;47.912;7.356;2023-05-08T19:27:59;99654.60;;;20.64;59.17
61805;BME280;47725;47.912;7.356;2023-05-08T19:31:59;99655.00;;;20.59;59.13
61805;BME280;47725;47.912;7.356;2023-05-08T19:35:59;99655.44;;;20.54;59.29
61805;BME280;47725;47.912;7.356;2023-05-08T19:39:59;99656.14;;;20.49;59.48
61805;BME280;47725;47.912;7.356;2023-05-08T19:43:59;99656.83;;;20.44;59.53
61805;BME280;47725;47.912;7.356;2023-05-08T19:47:59;99657.86;;;20.39;59.64
61805;BME280;47725;47.912;7.356;2023-05-08T19:51:59;99660.24;;;20.34;59.77
61805;BME280;47725;47.912;7.356;2023-05-08T19:55:59;99662.45;;;20.29;59.98
61805;BME280;47725;47.912;7.356;2023-05-08T19:59:59;99665.09;;;20.25;60.08
61805;BME280;47725;47.912;7.356;2023-05-08T20:03:59;99668.17;;;20.21;60.13
61805;BME280;47725;47.912;7.356;2023-05-08T20:07:59;99671.04;;;20.16;60.35
61805;BME280;47725;47.912;7.356;2023-05-08T20:11:59;99672.63;;;20.13;60.31
61805;BME280;47725;47.912;7.356;2023-05-08T20:15:59;99673.17;;;20.09;60.56
61805;BME280;47725;47.912;7.356;2023-05-08T20:19:59;99673.75;;;20.05;60.62
61805;BME280;47725;47.912;7.356;2023-05-08T20:23:59;99673.74;;;20.00;60.71
61805;BME280;47725;47.912;7.356;2023-05-08T20:27:59;99673.38;;;19.97;60.88
61805;BME280;47725;47.912;7.356;2023-05-08T20:31:59;99672.61;;;19.93;60.90
61805;BME280;47725;47.912;7.356;2023-05-08T20:35:59;99673.69;;;19.91;60.93
61805;BME280;47725;47.912;7.356;2023-05-08T20:39:59;99674.66;;;19.88;61.00
61805;BME280;47725;47.912;7.356;2023-05-08T20:43:59;99676.06;;;19.85;61.04
61805;BME280;47725;47.912;7.356;2023-05-08T20:47:59;99677.32;;;19.82;61.16
61805;BME280;47725;47.912;7.356;2023-05-08T20:51:59;99677.48;;;19.80;61.19
61805;BME280;47725;47.912;7.356;2023-05-08T20:56:01;99676.90;;;19.78;61.09
61805;BME280;47725;47.912;7.356;2023-05-08T20:59:58;99675.37;;;19.76;61.09
61805;BME280;47725;47.912;7.356;2023-05-08T21:03:58;99674.00;;;19.74;61.05
61805;BME280;47725;47.912;7.356;2023-05-08T21:07:58;99671.56;;;19.72;61.23
61805;BME280;47725;47.912;7.356;2023-05-08T21:11:58;99668.01;;;19.68;61.45
61805;BME280;47725;47.912;7.356;2023-05-08T21:15:58;99665.08;;;19.63;61.75
61805;BME280;47725;47.912;7.356;2023-05-08T21:19:58;99661.60;;;19.56;62.10
61805;BME280;47725;47.912;7.356;2023-05-08T21:23:58;99658.81;;;19.47;62.57
61805;BME280;47725;47.912;7.356;2023-05-08T21:27:58;99654.97;;;19.40;62.66
61805;BME280;47725;47.912;7.356;2023-05-08T21:31:58;99653.09;;;19.33;62.74
61805;BME280;47725;47.912;7.356;2023-05-08T21:35:59;99651.90;;;19.27;62.66